sensor_id;sensor_type;location;lat;lon;timestamp;pressure;altitude;pressure_sealevel;temperature;humidity
37238;BME280;23129;49.662;8.448;2022-07-15T00:01:28;100994.47;;;19.24;46.84
37238;BME280;23129;49.662;8.448;2022-07-15T00:03:57;100996.50;;;19.19;47.02
37238;BME280;23129;49.662;8.448;2022-07-15T00:06:25;101003.88;;;19.13;46.97
37238;BME280;23129;49.662;8.448;2022-07-15T00:08:54;101005.84;;;19.10;47.04
37238;BME280;23129;49.662;8.448;2022-07-15T00:11:23;100998.09;;;19.05;47.25
37238;BME280;23129;49.662;8.448;2022-07-15T00:13:52;101001.09;;;18.99;47.50
37238;BME280;23129;49.662;8.448;2022-07-15T00:16:28;100998.88;;;18.91;47.66
37238;BME280;23129;49.662;8.448;2022-07-15T00:18:57;100996.59;;;18.84;47.79
37238;BME280;23129;49.662;8.448;2022-07-15T00:21:25;100995.22;;;18.77;47.84
37238;BME280;23129;49.662;8.448;2022-07-15T00:23:54;100993.66;;;18.73;48.01
37238;BME280;23129;49.662;8.448;2022-07-15T00:26:23;100995.69;;;18.67;48.21
37238;BME280;23129;49.662;8.448;2022-07-15T00:28:52;100996.16;;;18.58;48.77
37238;BME280;23129;49.662;8.448;2022-07-15T00:31:20;100998.53;;;18.47;49.26
37238;BME280;23129;49.662;8.448;2022-07-15T00:33:49;101001.03;;;18.33;49.44
37238;BME280;23129;49.662;8.448;2022-07-15T00:36:17;101003.50;;;18.18;49.90
37238;BME280;23129;49.662;8.448;2022-07-15T00:38:46;101006.03;;;18.04;50.28
37238;BME280;23129;49.662;8.448;2022-07-15T00:41:15;101001.59;;;17.86;50.34
37238;BME280;23129;49.662;8.448;2022-07-15T00:43:45;101002.19;;;17.73;50.81
37238;BME280;23129;49.662;8.448;2022-07-15T00:46:15;100999.06;;;17.65;50.86
37238;BME280;23129;49.662;8.448;2022-07-15T00:48:44;101000.22;;;17.60;51.00
37238;BME280;23129;49.662;8.448;2022-07-15T00:51:12;100999.50;;;17.56;51.28
37238;BME280;23129;49.662;8.448;2022-07-15T00:53:41;101010.19;;;17.54;51.31
37238;BME280;23129;49.662;8.448;2022-07-15T00:56:11;101009.31;;;17.54;51.32
37238;BME280;23129;49.662;8.448;2022-07-15T00:58:41;101010.25;;;17.53;51.18
37238;BME280;23129;49.662;8.448;2022-07-15T01:01:12;101015.63;;;17.51;51.54
37238;BME280;23129;49.662;8.448;2022-07-15T01:03:41;101009.47;;;17.51;51.48
37238;BME280;23129;49.662;8.448;2022-07-15T01:06:10;101012.97;;;17.51;51.48
37238;BME280;23129;49.662;8.448;2022-07-15T01:08:39;101009.38;;;17.52;51.59
37238;BME280;23129;49.662;8.448;2022-07-15T01:11:08;101004.03;;;17.54;51.68
37238;BME280;23129;49.662;8.448;2022-07-15T01:13:37;100995.22;;;17.53;51.60
37238;BME280;23129;49.662;8.448;2022-07-15T01:16:06;101007.63;;;17.53;51.97
37238;BME280;23129;49.662;8.448;2022-07-15T01:18:37;101003.31;;;17.50;51.98
37238;BME280;23129;49.662;8.448;2022-07-15T01:21:08;101005.22;;;17.47;52.30
37238;BME280;23129;49.662;8.448;2022-07-15T01:23:38;101005.38;;;17.44;52.28
37238;BME280;23129;49.662;8.448;2022-07-15T01:26:29;101001.94;;;17.42;52.56
37238;BME280;23129;49.662;8.448;2022-07-15T01:28:58;101002.09;;;17.39;52.66
37238;BME280;23129;49.662;8.448;2022-07-15T01:31:26;101006.59;;;17.37;52.84
37238;BME280;23129;49.662;8.448;2022-07-15T01:33:56;101002.31;;;17.34;52.78
37238;BME280;23129;49.662;8.448;2022-07-15T01:36:26;101005.94;;;17.31;52.98
37238;BME280;23129;49.662;8.448;2022-07-15T01:38:57;101013.13;;;17.29;53.01
37238;BME280;23129;49.662;8.448;2022-07-15T01:41:46;101011.53;;;17.25;53.07
37238;BME280;23129;49.662;8.448;2022-07-15T01:44:17;101015.28;;;17.21;53.36
37238;BME280;23129;49.662;8.448;2022-07-15T01:46:46;101019.00;;;17.17;53.38
37238;BME280;23129;49.662;8.448;2022-07-15T01:49:16;101013.84;;;17.14;53.34
37238;BME280;23129;49.662;8.448;2022-07-15T01:52:06;101014.84;;;17.11;53.71
37238;BME280;23129;49.662;8.448;2022-07-15T01:54:38;101011.41;;;17.09;53.65
37238;BME280;23129;49.662;8.448;2022-07-15T01:57:07;101017.69;;;17.07;53.65
37238;BME280;23129;49.662;8.448;2022-07-15T01:59:49;101020.44;;;17.05;53.54
37238;BME280;23129;49.662;8.448;2022-07-15T02:02:26;101016.13;;;17.03;53.65
37238;BME280;23129;49.662;8.448;2022-07-15T02:04:54;101018.91;;;17.00;53.92
37238;BME280;23129;49.662;8.448;2022-07-15T02:07:25;101014.53;;;16.99;53.77
37238;BME280;23129;49.662;8.448;2022-07-15T02:09:53;101016.41;;;16.97;53.88
37238;BME280;23129;49.662;8.448;2022-07-15T02:12:21;101019.19;;;16.94;54.03
37238;BME280;23129;49.662;8.448;2022-07-15T02:14:53;101014.09;;;16.89;54.31
37238;BME280;23129;49.662;8.448;2022-07-15T02:17:26;101018.59;;;16.87;54.19
37238;BME280;23129;49.662;8.448;2022-07-15T02:19:55;101014.31;;;16.84;54.39
37238;BME280;23129;49.662;8.448;2022-07-15T02:22:25;101010.91;;;16.81;54.54
37238;BME280;23129;49.662;8.448;2022-07-15T02:24:58;101008.50;;;16.76;54.64
37238;BME280;23129;49.662;8.448;2022-07-15T02:27:27;101012.03;;;16.75;54.58
37238;BME280;23129;49.662;8.448;2022-07-15T02:29:55;101011.28;;;16.72;54.76
37238;BME280;23129;49.662;8.448;2022-07-15T02:32:27;101015.88;;;16.68;54.77
37238;BME280;23129;49.662;8.448;2022-07-15T02:34:58;101009.84;;;16.64;54.76
37238;BME280;23129;49.662;8.448;2022-07-15T02:37:29;101012.56;;;16.63;55.11
37238;BME280;23129;49.662;8.448;2022-07-15T02:39:58;101009.13;;;16.61;54.86
37238;BME280;23129;49.662;8.448;2022-07-15T02:42:26;101005.69;;;16.59;55.14
37238;BME280;23129;49.662;8.448;2022-07-15T02:44:56;101019.88;;;16.58;55.05
37238;BME280;23129;49.662;8.448;2022-07-15T02:47:24;101021.72;;;16.56;54.98
37238;BME280;23129;49.662;8.448;2022-07-15T02:49:53;101028.84;;;16.54;55.10
37238;BME280;23129;49.662;8.448;2022-07-15T02:52:22;101027.13;;;16.53;55.26
37238;BME280;23129;49.662;8.448;2022-07-15T02:54:52;101027.28;;;16.50;55.35
37238;BME280;23129;49.662;8.448;2022-07-15T02:57:21;101032.56;;;16.50;55.18
37238;BME280;23129;49.662;8.448;2022-07-15T02:59:49;101028.25;;;16.47;55.33
37238;BME280;23129;49.662;8.448;2022-07-15T03:02:19;101034.53;;;16.44;55.20
37238;BME280;23129;49.662;8.448;2022-07-15T03:04:48;101028.47;;;16.42;55.36
37238;BME280;23129;49.662;8.448;2022-07-15T03:07:16;101038.25;;;16.40;55.62
37238;BME280;23129;49.662;8.448;2022-07-15T03:09:46;101048.97;;;16.37;55.82
37238;BME280;23129;49.662;8.448;2022-07-15T03:12:16;101053.44;;;16.37;55.59
37238;BME280;23129;49.662;8.448;2022-07-15T03:14:44;101048.19;;;16.35;55.42
37238;BME280;23129;49.662;8.448;2022-07-15T03:17:14;101054.41;;;16.34;55.58
37238;BME280;23129;49.662;8.448;2022-07-15T03:19:43;101056.25;;;16.32;55.51
37238;BME280;23129;49.662;8.448;2022-07-15T03:22:11;101060.66;;;16.33;55.71
37238;BME280;23129;49.662;8.448;2022-07-15T03:24:42;101059.84;;;16.31;55.79
37238;BME280;23129;49.662;8.448;2022-07-15T03:27:10;101055.53;;;16.29;56.03
37238;BME280;23129;49.662;8.448;2022-07-15T03:29:40;101058.22;;;16.27;55.84
37238;BME280;23129;49.662;8.448;2022-07-15T03:32:11;101061.81;;;16.26;56.05
37238;BME280;23129;49.662;8.448;2022-07-15T03:34:43;101064.56;;;16.23;56.02
37238;BME280;23129;49.662;8.448;2022-07-15T03:37:11;101065.50;;;16.22;56.15
37238;BME280;23129;49.662;8.448;2022-07-15T03:39:40;101069.19;;;16.18;56.00
37238;BME280;23129;49.662;8.448;2022-07-15T03:42:09;101065.75;;;16.16;56.03
37238;BME280;23129;49.662;8.448;2022-07-15T03:44:42;101073.75;;;16.14;56.21
37238;BME280;23129;49.662;8.448;2022-07-15T03:47:11;101065.94;;;16.11;56.35
37238;BME280;23129;49.662;8.448;2022-07-15T03:49:39;101070.44;;;16.09;56.50
37238;BME280;23129;49.662;8.448;2022-07-15T03:52:09;101071.44;;;16.07;56.55
37238;BME280;23129;49.662;8.448;2022-07-15T03:54:37;101075.00;;;16.06;56.76
37238;BME280;23129;49.662;8.448;2022-07-15T03:57:06;101079.50;;;16.04;56.55
37238;BME280;23129;49.662;8.448;2022-07-15T03:59:34;101078.69;;;16.02;56.72
37238;BME280;23129;49.662;8.448;2022-07-15T04:02:04;101069.03;;;16.01;56.80
37238;BME280;23129;49.662;8.448;2022-07-15T04:04:33;101075.25;;;16.00;56.72
37238;BME280;23129;49.662;8.448;2022-07-15T04:07:01;101076.22;;;15.97;56.76
37238;BME280;23129;49.662;8.448;2022-07-15T04:09:30;101085.94;;;15.96;56.76
37238;BME280;23129;49.662;8.448;2022-07-15T04:11:58;101079.88;;;15.94;56.95
37238;BME280;23129;49.662;8.448;2022-07-15T04:14:26;101085.22;;;15.93;56.88
37238;BME280;23129;49.662;8.448;2022-07-15T04:16:55;101089.66;;;15.92;57.01
37238;BME280;23129;49.662;8.448;2022-07-15T04:19:31;101096.66;;;15.93;57.14
37238;BME280;23129;49.662;8.448;2022-07-15T04:22:02;101089.66;;;15.92;57.09
37238;BME280;23129;49.662;8.448;2022-07-15T04:24:38;101098.41;;;15.94;56.97
37238;BME280;23129;49.662;8.448;2022-07-15T04:27:11;101098.41;;;15.94;57.10
37238;BME280;23129;49.662;8.448;2022-07-15T04:29:39;101096.53;;;15.96;57.06
37238;BME280;23129;49.662;8.448;2022-07-15T04:32:10;101097.34;;;15.98;57.13
37238;BME280;23129;49.662;8.448;2022-07-15T04:34:43;101092.84;;;16.01;57.06
37238;BME280;23129;49.662;8.448;2022-07-15T04:37:12;101100.59;;;16.05;57.06
37238;BME280;23129;49.662;8.448;2022-07-15T04:39:45;101105.63;;;16.11;57.16
37238;BME280;23129;49.662;8.448;2022-07-15T04:42:14;101098.38;;;16.16;56.81
37238;BME280;23129;49.662;8.448;2022-07-15T04:44:43;101099.00;;;16.23;57.05
37238;BME280;23129;49.662;8.448;2022-07-15T04:47:15;101099.59;;;16.30;56.61
37238;BME280;23129;49.662;8.448;2022-07-15T04:49:53;101100.09;;;16.39;56.69
37238;BME280;23129;49.662;8.448;2022-07-15T04:52:43;101101.44;;;16.50;56.54
37238;BME280;23129;49.662;8.448;2022-07-15T04:55:12;101101.03;;;16.59;56.59
37238;BME280;23129;49.662;8.448;2022-07-15T04:57:41;101100.66;;;16.68;56.32
37238;BME280;23129;49.662;8.448;2022-07-15T05:00:11;101103.88;;;16.76;56.34
37238;BME280;23129;49.662;8.448;2022-07-15T05:02:39;101107.06;;;16.84;56.15
37238;BME280;23129;49.662;8.448;2022-07-15T05:05:10;101098.88;;;16.89;56.17
37238;BME280;23129;49.662;8.448;2022-07-15T05:07:38;101100.50;;;16.93;56.46
37238;BME280;23129;49.662;8.448;2022-07-15T05:10:09;101105.56;;;16.98;56.32
37238;BME280;23129;49.662;8.448;2022-07-15T05:12:41;101108.81;;;17.04;56.34
37238;BME280;23129;49.662;8.448;2022-07-15T05:15:10;101105.03;;;17.10;56.18
37238;BME280;23129;49.662;8.448;2022-07-15T05:17:41;101106.50;;;17.17;56.09
37238;BME280;23129;49.662;8.448;2022-07-15T05:20:17;101108.75;;;17.26;55.88
37238;BME280;23129;49.662;8.448;2022-07-15T05:22:47;101110.03;;;17.37;55.93
37238;BME280;23129;49.662;8.448;2022-07-15T05:25:17;101114.91;;;17.46;55.80
37238;BME280;23129;49.662;8.448;2022-07-15T05:27:46;101117.22;;;17.53;55.79
37238;BME280;23129;49.662;8.448;2022-07-15T05:30:15;101126.56;;;17.62;55.60
37238;BME280;23129;49.662;8.448;2022-07-15T05:32:44;101123.53;;;17.70;55.51
37238;BME280;23129;49.662;8.448;2022-07-15T05:35:21;101128.53;;;17.77;55.19
37238;BME280;23129;49.662;8.448;2022-07-15T05:37:52;101123.84;;;17.83;55.01
37238;BME280;23129;49.662;8.448;2022-07-15T05:40:26;101127.94;;;17.90;55.05
37238;BME280;23129;49.662;8.448;2022-07-15T05:42:56;101116.22;;;17.94;54.93
37238;BME280;23129;49.662;8.448;2022-07-15T05:45:25;101127.50;;;17.99;55.01
37238;BME280;23129;49.662;8.448;2022-07-15T05:48:02;101128.16;;;18.04;55.13
37238;BME280;23129;49.662;8.448;2022-07-15T05:50:37;101134.88;;;18.11;55.10
37238;BME280;23129;49.662;8.448;2022-07-15T05:53:07;101136.28;;;18.18;54.83
37238;BME280;23129;49.662;8.448;2022-07-15T05:55:35;101137.72;;;18.25;54.63
37238;BME280;23129;49.662;8.448;2022-07-15T05:58:06;101137.44;;;18.32;54.40
37238;BME280;23129;49.662;8.448;2022-07-15T06:00:37;101133.66;;;18.36;54.65
37238;BME280;23129;49.662;8.448;2022-07-15T06:03:06;101137.97;;;18.38;54.26
37238;BME280;23129;49.662;8.448;2022-07-15T06:05:44;101142.28;;;18.41;54.33
37238;BME280;23129;49.662;8.448;2022-07-15T06:08:13;101143.22;;;18.40;54.38
37238;BME280;23129;49.662;8.448;2022-07-15T06:10:44;101145.72;;;18.43;54.37
37238;BME280;23129;49.662;8.448;2022-07-15T06:13:13;101144.69;;;18.45;54.26
37238;BME280;23129;49.662;8.448;2022-07-15T06:15:44;101141.97;;;18.47;54.48
37238;BME280;23129;49.662;8.448;2022-07-15T06:18:18;101141.81;;;18.50;54.45
37238;BME280;23129;49.662;8.448;2022-07-15T06:20:50;101146.84;;;18.56;54.34
37238;BME280;23129;49.662;8.448;2022-07-15T06:23:19;101160.59;;;18.64;53.83
37238;BME280;23129;49.662;8.448;2022-07-15T06:25:47;101149.56;;;18.72;53.66
37238;BME280;23129;49.662;8.448;2022-07-15T06:28:15;101153.59;;;18.81;53.54
37238;BME280;23129;49.662;8.448;2022-07-15T06:30:44;101149.72;;;18.88;53.68
37238;BME280;23129;49.662;8.448;2022-07-15T06:33:12;101148.59;;;18.92;53.15
37238;BME280;23129;49.662;8.448;2022-07-15T06:35:41;101147.50;;;18.96;53.28
37238;BME280;23129;49.662;8.448;2022-07-15T06:38:13;101157.06;;;19.00;52.88
37238;BME280;23129;49.662;8.448;2022-07-15T06:40:42;101157.81;;;19.02;52.90
37238;BME280;23129;49.662;8.448;2022-07-15T06:43:11;101160.47;;;19.02;52.76
37238;BME280;23129;49.662;8.448;2022-07-15T06:45:55;101154.13;;;19.05;52.90
37238;BME280;23129;49.662;8.448;2022-07-15T06:48:24;101154.06;;;19.06;52.51
37238;BME280;23129;49.662;8.448;2022-07-15T06:50:54;101154.66;;;19.11;52.68
37238;BME280;23129;49.662;8.448;2022-07-15T06:53:23;101152.63;;;19.16;52.37
37238;BME280;23129;49.662;8.448;2022-07-15T06:55:53;101152.31;;;19.23;52.37
37238;BME280;23129;49.662;8.448;2022-07-15T06:58:22;101159.06;;;19.30;52.12
37238;BME280;23129;49.662;8.448;2022-07-15T07:00:51;101162.31;;;19.35;51.76
37238;BME280;23129;49.662;8.448;2022-07-15T07:03:19;101158.41;;;19.42;51.94
37238;BME280;23129;49.662;8.448;2022-07-15T07:06:07;101156.25;;;19.49;51.48
37238;BME280;23129;49.662;8.448;2022-07-15T07:08:38;101162.88;;;19.57;51.56
37238;BME280;23129;49.662;8.448;2022-07-15T07:11:06;101156.25;;;19.66;51.13
37238;BME280;23129;49.662;8.448;2022-07-15T07:13:35;101156.59;;;19.76;51.31
37238;BME280;23129;49.662;8.448;2022-07-15T07:16:04;101160.47;;;19.86;50.96
37238;BME280;23129;49.662;8.448;2022-07-15T07:18:34;101158.00;;;19.99;50.79
37238;BME280;23129;49.662;8.448;2022-07-15T07:21:03;101156.63;;;20.08;50.80
37238;BME280;23129;49.662;8.448;2022-07-15T07:23:32;101161.59;;;20.14;50.60
37238;BME280;23129;49.662;8.448;2022-07-15T07:26:02;101161.25;;;20.20;50.45
37238;BME280;23129;49.662;8.448;2022-07-15T07:28:31;101159.16;;;20.25;50.51
37238;BME280;23129;49.662;8.448;2022-07-15T07:31:00;101164.00;;;20.34;50.30
37238;BME280;23129;49.662;8.448;2022-07-15T07:33:29;101155.53;;;20.42;49.95
37238;BME280;23129;49.662;8.448;2022-07-15T07:35:57;101149.69;;;20.51;49.85
37238;BME280;23129;49.662;8.448;2022-07-15T07:38:25;101154.44;;;20.62;49.89
37238;BME280;23129;49.662;8.448;2022-07-15T07:40:54;101144.69;;;20.77;49.51
37238;BME280;23129;49.662;8.448;2022-07-15T07:43:23;101153.19;;;20.97;49.28
37238;BME280;23129;49.662;8.448;2022-07-15T07:45:52;101148.25;;;21.20;48.82
37238;BME280;23129;49.662;8.448;2022-07-15T07:48:20;101148.72;;;21.42;48.33
37238;BME280;23129;49.662;8.448;2022-07-15T07:50:49;101145.34;;;21.53;48.30
37238;BME280;23129;49.662;8.448;2022-07-15T07:53:19;101151.19;;;21.60;48.08
37238;BME280;23129;49.662;8.448;2022-07-15T07:55:47;101152.31;;;21.70;47.91
37238;BME280;23129;49.662;8.448;2022-07-15T07:58:16;101159.53;;;21.97;47.57
37238;BME280;23129;49.662;8.448;2022-07-15T08:00:49;101143.84;;;22.19;46.97
37238;BME280;23129;49.662;8.448;2022-07-15T08:03:19;101143.59;;;22.37;46.90
37238;BME280;23129;49.662;8.448;2022-07-15T08:05:47;101149.66;;;22.53;46.51
37238;BME280;23129;49.662;8.448;2022-07-15T08:08:18;101146.88;;;22.67;46.25
37238;BME280;23129;49.662;8.448;2022-07-15T08:10:51;101146.09;;;22.79;46.17
37238;BME280;23129;49.662;8.448;2022-07-15T08:13:23;101144.69;;;22.87;46.32
37238;BME280;23129;49.662;8.448;2022-07-15T08:15:54;101137.22;;;22.92;46.02
37238;BME280;23129;49.662;8.448;2022-07-15T08:18:28;101143.94;;;22.85;45.78
37238;BME280;23129;49.662;8.448;2022-07-15T08:20:57;101144.91;;;22.84;45.98
37238;BME280;23129;49.662;8.448;2022-07-15T08:23:25;101153.19;;;23.06;45.71
37238;BME280;23129;49.662;8.448;2022-07-15T08:25:53;101159.31;;;23.34;45.21
37238;BME280;23129;49.662;8.448;2022-07-15T08:28:22;101154.16;;;23.56;44.84
37238;BME280;23129;49.662;8.448;2022-07-15T08:31:12;101157.97;;;23.90;44.32
37238;BME280;23129;49.662;8.448;2022-07-15T08:33:41;101148.25;;;24.13;43.80
37238;BME280;23129;49.662;8.448;2022-07-15T08:36:09;101147.84;;;24.31;43.40
37238;BME280;23129;49.662;8.448;2022-07-15T08:38:39;101141.88;;;24.51;42.81
37238;BME280;23129;49.662;8.448;2022-07-15T08:41:07;101140.72;;;24.67;42.51
37238;BME280;23129;49.662;8.448;2022-07-15T08:43:36;101138.34;;;24.86;42.56
37238;BME280;23129;49.662;8.448;2022-07-15T08:46:07;101133.19;;;25.18;41.81
37238;BME280;23129;49.662;8.448;2022-07-15T08:48:38;101138.44;;;25.42;41.33
37238;BME280;23129;49.662;8.448;2022-07-15T08:51:08;101135.53;;;25.68;40.97
37238;BME280;23129;49.662;8.448;2022-07-15T08:53:36;101139.78;;;26.04;40.44
37238;BME280;23129;49.662;8.448;2022-07-15T08:56:06;101137.34;;;26.45;39.90
37238;BME280;23129;49.662;8.448;2022-07-15T08:58:35;101134.25;;;26.81;39.26
37238;BME280;23129;49.662;8.448;2022-07-15T09:01:24;101142.63;;;27.09;38.87
37238;BME280;23129;49.662;8.448;2022-07-15T09:03:54;101142.66;;;27.40;38.45
37238;BME280;23129;49.662;8.448;2022-07-15T09:06:34;101141.94;;;27.68;38.16
37238;BME280;23129;49.662;8.448;2022-07-15T09:09:26;101146.34;;;28.10;37.88
37238;BME280;23129;49.662;8.448;2022-07-15T09:12:00;101150.53;;;28.43;37.27
37238;BME280;23129;49.662;8.448;2022-07-15T09:14:42;101147.69;;;28.64;37.00
37238;BME280;23129;49.662;8.448;2022-07-15T09:17:23;101140.81;;;28.89;36.77
37238;BME280;23129;49.662;8.448;2022-07-15T09:20:07;101145.09;;;29.11;36.33
37238;BME280;23129;49.662;8.448;2022-07-15T09:22:57;101149.78;;;28.99;36.73
37238;BME280;23129;49.662;8.448;2022-07-15T09:25:27;101149.06;;;28.78;36.70
37238;BME280;23129;49.662;8.448;2022-07-15T09:27:55;101156.19;;;28.59;36.62
37238;BME280;23129;49.662;8.448;2022-07-15T09:30:30;101148.28;;;28.48;36.94
37238;BME280;23129;49.662;8.448;2022-07-15T09:33:18;101155.50;;;28.57;36.35
37238;BME280;23129;49.662;8.448;2022-07-15T09:36:09;101150.13;;;28.57;36.48
37238;BME280;23129;49.662;8.448;2022-07-15T09:38:49;101154.75;;;28.36;36.82
37238;BME280;23129;49.662;8.448;2022-07-15T09:41:30;101150.09;;;28.77;36.28
37238;BME280;23129;49.662;8.448;2022-07-15T09:44:02;101148.69;;;29.02;35.50
37238;BME280;23129;49.662;8.448;2022-07-15T09:46:44;101145.69;;;29.05;35.57
37238;BME280;23129;49.662;8.448;2022-07-15T09:49:17;101151.94;;;28.76;35.68
37238;BME280;23129;49.662;8.448;2022-07-15T09:51:50;101164.44;;;28.67;36.02
37238;BME280;23129;49.662;8.448;2022-07-15T09:54:21;101161.31;;;28.62;36.23
37238;BME280;23129;49.662;8.448;2022-07-15T09:56:50;101154.25;;;28.42;36.07
37238;BME280;23129;49.662;8.448;2022-07-15T09:59:19;101146.50;;;28.86;35.34
37238;BME280;23129;49.662;8.448;2022-07-15T10:01:47;101144.66;;;29.63;34.11
37238;BME280;23129;49.662;8.448;2022-07-15T10:04:19;101143.31;;;29.94;33.96
37238;BME280;23129;49.662;8.448;2022-07-15T10:06:52;101145.41;;;29.83;33.70
37238;BME280;23129;49.662;8.448;2022-07-15T10:09:41;101145.28;;;30.02;33.26
37238;BME280;23129;49.662;8.448;2022-07-15T10:12:16;101151.50;;;30.66;32.42
37238;BME280;23129;49.662;8.448;2022-07-15T10:15:08;101144.97;;;31.38;31.49
37238;BME280;23129;49.662;8.448;2022-07-15T10:18:11;101137.75;;;31.90;31.25
37238;BME280;23129;49.662;8.448;2022-07-15T10:21:17;101133.44;;;32.62;30.45
37238;BME280;23129;49.662;8.448;2022-07-15T10:24:43;101138.34;;;33.24;29.80
37238;BME280;23129;49.662;8.448;2022-07-15T10:30:20;101114.84;;;33.79;29.15
37238;BME280;23129;49.662;8.448;2022-07-15T10:33:10;101115.09;;;33.92;28.96
37238;BME280;23129;49.662;8.448;2022-07-15T10:35:45;101123.81;;;33.48;29.37
37238;BME280;23129;49.662;8.448;2022-07-15T10:38:26;101122.22;;;33.06;29.98
37238;BME280;23129;49.662;8.448;2022-07-15T10:41:06;101120.28;;;33.23;29.76
37238;BME280;23129;49.662;8.448;2022-07-15T10:43:54;101120.41;;;33.38;29.48
37238;BME280;23129;49.662;8.448;2022-07-15T10:46:28;101115.91;;;33.70;28.95
37238;BME280;23129;49.662;8.448;2022-07-15T10:49:29;101114.00;;;34.01;28.72
37238;BME280;23129;49.662;8.448;2022-07-15T10:52:12;101097.84;;;34.08;28.56
37238;BME280;23129;49.662;8.448;2022-07-15T10:55:00;101102.44;;;34.30;28.11
37238;BME280;23129;49.662;8.448;2022-07-15T10:57:54;101097.75;;;34.39;28.15
37238;BME280;23129;49.662;8.448;2022-07-15T11:00:29;101090.22;;;34.49;27.63
37238;BME280;23129;49.662;8.448;2022-07-15T11:03:05;101094.41;;;34.75;27.37
37238;BME280;23129;49.662;8.448;2022-07-15T11:05:41;101092.97;;;35.17;27.20
37238;BME280;23129;49.662;8.448;2022-07-15T11:08:48;101087.00;;;35.73;26.46
37238;BME280;23129;49.662;8.448;2022-07-15T11:11:48;101083.94;;;35.82;26.23
37238;BME280;23129;49.662;8.448;2022-07-15T11:14:50;101089.81;;;36.01;25.92
37238;BME280;23129;49.662;8.448;2022-07-15T11:17:24;101084.69;;;36.34;25.66
37238;BME280;23129;49.662;8.448;2022-07-15T11:19:56;101078.28;;;36.20;25.94
37238;BME280;23129;49.662;8.448;2022-07-15T11:22:28;101085.81;;;35.46;26.35
37238;BME280;23129;49.662;8.448;2022-07-15T11:24:57;101083.31;;;34.62;26.90
37238;BME280;23129;49.662;8.448;2022-07-15T11:27:26;101081.94;;;33.89;27.73
37238;BME280;23129;49.662;8.448;2022-07-15T11:29:57;101090.78;;;33.12;27.98
37238;BME280;23129;49.662;8.448;2022-07-15T11:32:31;101083.88;;;32.52;28.66
37238;BME280;23129;49.662;8.448;2022-07-15T11:35:03;101088.25;;;32.04;29.13
37238;BME280;23129;49.662;8.448;2022-07-15T11:37:34;101082.50;;;31.65;28.88
37238;BME280;23129;49.662;8.448;2022-07-15T11:40:12;101089.00;;;31.37;29.13
37238;BME280;23129;49.662;8.448;2022-07-15T11:43:01;101084.34;;;30.96;29.91
37238;BME280;23129;49.662;8.448;2022-07-15T11:45:49;101089.09;;;30.93;29.71
37238;BME280;23129;49.662;8.448;2022-07-15T11:48:17;101085.41;;;31.63;28.81
37238;BME280;23129;49.662;8.448;2022-07-15T11:50:51;101075.22;;;32.57;27.52
37238;BME280;23129;49.662;8.448;2022-07-15T11:53:21;101078.75;;;32.98;27.01
37238;BME280;23129;49.662;8.448;2022-07-15T11:55:52;101076.69;;;32.84;27.25
37238;BME280;23129;49.662;8.448;2022-07-15T11:58:27;101074.03;;;32.51;27.42
37238;BME280;23129;49.662;8.448;2022-07-15T12:00:57;101068.91;;;32.40;27.26
37238;BME280;23129;49.662;8.448;2022-07-15T12:03:40;101073.34;;;32.57;27.53
37238;BME280;23129;49.662;8.448;2022-07-15T12:06:13;101065.16;;;32.98;26.54
37238;BME280;23129;49.662;8.448;2022-07-15T12:08:46;101059.88;;;33.52;26.27
37238;BME280;23129;49.662;8.448;2022-07-15T12:11:35;101057.03;;;34.00;25.73
37238;BME280;23129;49.662;8.448;2022-07-15T12:14:06;101043.94;;;34.41;25.26
37238;BME280;23129;49.662;8.448;2022-07-15T12:16:42;101043.84;;;34.87;24.68
37238;BME280;23129;49.662;8.448;2022-07-15T12:19:15;101057.94;;;35.35;24.33
37238;BME280;23129;49.662;8.448;2022-07-15T12:21:47;101058.72;;;35.80;24.10
37238;BME280;23129;49.662;8.448;2022-07-15T12:24:17;101054.22;;;36.09;23.63
37238;BME280;23129;49.662;8.448;2022-07-15T12:26:57;101055.09;;;35.95;24.10
37238;BME280;23129;49.662;8.448;2022-07-15T12:29:28;101058.31;;;35.32;24.34
37238;BME280;23129;49.662;8.448;2022-07-15T12:32:18;101058.16;;;34.51;25.12
37238;BME280;23129;49.662;8.448;2022-07-15T12:34:55;101071.66;;;33.76;25.77
37238;BME280;23129;49.662;8.448;2022-07-15T12:37:27;101067.38;;;33.42;25.91
37238;BME280;23129;49.662;8.448;2022-07-15T12:40:02;101064.50;;;33.75;25.55
37238;BME280;23129;49.662;8.448;2022-07-15T12:42:37;101061.16;;;34.19;24.83
37238;BME280;23129;49.662;8.448;2022-07-15T12:45:09;101050.59;;;34.62;24.53
37238;BME280;23129;49.662;8.448;2022-07-15T12:48:02;101055.59;;;35.03;24.03
37238;BME280;23129;49.662;8.448;2022-07-15T12:50:33;101061.34;;;35.22;23.71
37238;BME280;23129;49.662;8.448;2022-07-15T12:53:03;101058.44;;;34.94;24.05
37238;BME280;23129;49.662;8.448;2022-07-15T12:55:40;101060.41;;;35.01;24.17
37238;BME280;23129;49.662;8.448;2022-07-15T12:58:11;101059.66;;;35.36;23.42
37238;BME280;23129;49.662;8.448;2022-07-15T13:00:40;101062.16;;;35.67;23.12
37238;BME280;23129;49.662;8.448;2022-07-15T13:03:14;101052.56;;;35.93;23.20
37238;BME280;23129;49.662;8.448;2022-07-15T13:05:52;101058.59;;;36.31;22.60
37238;BME280;23129;49.662;8.448;2022-07-15T13:08:24;101054.75;;;36.69;22.49
37238;BME280;23129;49.662;8.448;2022-07-15T13:10:55;101047.28;;;36.91;21.92
37238;BME280;23129;49.662;8.448;2022-07-15T13:13:26;101054.38;;;37.07;21.88
37238;BME280;23129;49.662;8.448;2022-07-15T13:15:54;101047.31;;;37.26;21.52
37238;BME280;23129;49.662;8.448;2022-07-15T13:18:24;101049.56;;;37.63;20.86
37238;BME280;23129;49.662;8.448;2022-07-15T13:20:54;101038.72;;;37.97;20.77
37238;BME280;23129;49.662;8.448;2022-07-15T13:23:23;101033.25;;;38.17;20.46